Het weer levert geen direct gevaar op.    Er zijn geen waarschuwingen afgegeven.

Onweer radar Meer informatie blitzortung!


Regen radar Meer informatie rain snow radar



METAR rapporten vliegvelden

   
EHGR - Dalem
Gewijzigd: 19-11-2019 10:25
Bewolking  
Bewolking  
   Wind: WZW 3.1 m/s
Wind: WZW 3.1 m/s
Temperatuur: 6°C
Voelt als: 4°C
Dauwpunt: 4°C
Vochtigheid: 87%
Barometer: 1016 hPa
Bewolking: Bewolking
Zicht: meer dan 10 km
Bewolking: Licht bewolkt 3400 ft,
Grotendeels bewolkt 4000 ft,
Bewolking 4400 ft
EHGR 190925Z AUTO 24006KT 210V270 9999 FEW034 BKN040 OVC044 06/04 Q1016 BLU 24005KT 9999 FEW020 SCT045
EHGR - Roosendaal
Gewijzigd: 19-11-2019 10:25
Bewolking  
Bewolking  
   Wind: WZW 3.1 m/s
Wind: WZW 3.1 m/s
Temperatuur: 6°C
Voelt als: 4°C
Dauwpunt: 4°C
Vochtigheid: 87%
Barometer: 1016 hPa
Bewolking: Bewolking
Zicht: meer dan 10 km
Bewolking: Licht bewolkt 3400 ft,
Grotendeels bewolkt 4000 ft,
Bewolking 4400 ft
EHGR 190925Z AUTO 24006KT 210V270 9999 FEW034 BKN040 OVC044 06/04 Q1016 BLU 24005KT 9999 FEW020 SCT045
EHRD - Rotterdam
Gewijzigd: 19-11-2019 10:25
Grotendeels bewolkt  
Grotendeels bewolkt  
   Wind: WZW 3.1 m/s
Wind: WZW 3.1 m/s
Temperatuur: 6°C
Voelt als: 4°C
Dauwpunt: 4°C
Vochtigheid: 87%
Barometer: 1015 hPa
Bewolking: Grotendeels bewolkt
Zicht: meer dan 10 km
Bewolking: Licht bewolkt 2700 ft,
Gedeeltelijk bewolkt 4200 ft,
Grotendeels bewolkt 4800 ft
EHRD 190925Z AUTO 25006KT 9999 FEW027 SCT042 BKN048 06/04 Q1015 NOSIG
EHLW - Urk
Gewijzigd: 19-11-2019 10:25
Helder  
Helder  
   Wind: Westen 3.6 m/s
Wind: Westen 3.6 m/s
Temperatuur: 7°C
Voelt als: 4°C
Dauwpunt: 4°C
Vochtigheid: 81%
Barometer: 1013 hPa
Bewolking: Helder
Zicht: meer dan 10 km
Bewolking: Helder
EHLW 190925Z AUTO 27007KT 240V300 9999 NCD 07/04 Q1013 BLU 28007KT 9999 FEW025 TEMPO FEW018CB SCT025
EHDL - Veenendaal
Gewijzigd: 19-11-2019 10:25
Grotendeels bewolkt  
Grotendeels bewolkt  
   Wind: ZW 3.1 m/s
Wind: ZW 3.1 m/s
Temperatuur: 6°C
Voelt als: 4°C
Dauwpunt: 5°C
Vochtigheid: 93%
Barometer: 1015 hPa
Bewolking: Grotendeels bewolkt
Zicht: meer dan 10 km
Bewolking: Licht bewolkt 2700 ft,
Gedeeltelijk bewolkt 3000 ft,
Grotendeels bewolkt 3600 ft
EHDL 190925Z AUTO 22006KT 170V260 9999 FEW027 SCT030 BKN036 06/05 Q1015 BLU
EHRD - Vianen
Gewijzigd: 19-11-2019 10:25
Grotendeels bewolkt  
Grotendeels bewolkt  
   Wind: WZW 3.1 m/s
Wind: WZW 3.1 m/s
Temperatuur: 6°C
Voelt als: 4°C
Dauwpunt: 4°C
Vochtigheid: 87%
Barometer: 1015 hPa
Bewolking: Grotendeels bewolkt
Zicht: meer dan 10 km
Bewolking: Licht bewolkt 2700 ft,
Gedeeltelijk bewolkt 4200 ft,
Grotendeels bewolkt 4800 ft
EHRD 190925Z AUTO 25006KT 9999 FEW027 SCT042 BKN048 06/04 Q1015 NOSIG

Script ontwikkeld door  Saratoga-weather.org Aangepast voor de template door  Weerstation Leuven

U vindt ons ook hier:

Het Weer Aktueel

UK Metoffice

European Weather Network

WeatherCloud

Weather Underground

AWEKAS

Citizen Weather Observer Program (CWOP)

HAMweather, WeatherForYou, PWS Weather

Apparatuur in gebruik:

Weerstation
Davis VP2 weatherstation

Weerprogramma
Meteobridge

Weercomputer
Asus WL_330N3G

Davis VP2 weatherstation

Meteobridge

Asus WL_330N3G